Time;durP1;ratioP1;P1;durP2;ratioP2;P2;SDS_P1;SDS_P2;PMS_P1;PMS_P2;Temp;Humidity;BMP_temperature;BMP_pressure;BME280_temperature;BME280_humidity;BME280_pressure;Samples;Min_cycle;Max_cycle;Signal;HPM_P1;HPM_P2
2024/01/20 00:02:25;;;;;;;20.75;15.85;;;;;;;;;;5024406;28;20053;-68
2024/01/20 00:04:51;;;;;;;24.15;16.05;;;;;;;;;;5030408;28;20401;-68
2024/01/20 00:07:17;;;;;;;28.48;16.52;;;;;;;;;;5031721;28;20491;-68
2024/01/20 00:09:43;;;;;;;26.25;16.20;;;;;;;;;;5031768;28;20049;-68
2024/01/20 00:12:09;;;;;;;26.58;16.95;;;;;;;;;;5021010;28;20038;-68
2024/01/20 00:14:35;;;;;;;25.30;16.13;;;;;;;;;;5031550;28;20211;-68
2024/01/20 00:17:01;;;;;;;28.33;17.48;;;;;;;;;;5031857;28;20072;-68
2024/01/20 00:19:27;;;;;;;26.85;17.50;;;;;;;;;;5031797;28;20033;-68
2024/01/20 00:21:53;;;;;;;30.33;17.80;;;;;;;;;;5029752;28;20050;-68
2024/01/20 00:24:19;;;;;;;29.30;18.05;;;;;;;;;;5029880;28;20045;-68
2024/01/20 00:26:45;;;;;;;26.92;17.83;;;;;;;;;;5031391;28;20037;-68
2024/01/20 00:29:11;;;;;;;25.75;17.05;;;;;;;;;;5032701;28;20041;-68
2024/01/20 00:31:37;;;;;;;26.35;18.73;;;;;;;;;;5013926;28;20049;-68
2024/01/20 00:34:03;;;;;;;25.13;17.90;;;;;;;;;;5031553;28;20041;-68
2024/01/20 00:36:29;;;;;;;26.35;17.17;;;;;;;;;;5031436;28;20038;-68
2024/01/20 00:38:55;;;;;;;25.40;17.80;;;;;;;;;;5031386;28;20124;-68
2024/01/20 00:41:21;;;;;;;24.70;17.73;;;;;;;;;;5034738;28;20037;-68
2024/01/20 00:43:47;;;;;;;28.52;17.63;;;;;;;;;;5031602;28;20484;-68
2024/01/20 00:46:13;;;;;;;31.92;19.35;;;;;;;;;;5030239;28;20124;-68
2024/01/20 00:48:39;;;;;;;33.33;19.33;;;;;;;;;;5031379;28;20091;-68
2024/01/20 00:51:05;;;;;;;29.40;18.90;;;;;;;;;;5031957;28;20038;-68
2024/01/20 00:53:31;;;;;;;29.27;18.63;;;;;;;;;;5034964;28;20045;-68
2024/01/20 00:55:57;;;;;;;32.33;19.02;;;;;;;;;;5031205;28;20135;-68
2024/01/20 00:58:23;;;;;;;29.13;18.08;;;;;;;;;;5013659;28;20037;-68
2024/01/20 01:00:48;;;;;;;28.38;18.95;;;;;;;;;;5031069;28;20073;-68
2024/01/20 01:03:14;;;;;;;26.83;18.80;;;;;;;;;;5032673;28;20041;-68
2024/01/20 01:05:40;;;;;;;34.47;20.25;;;;;;;;;;5026330;28;20120;-68
2024/01/20 01:08:06;;;;;;;33.33;19.55;;;;;;;;;;5021491;28;20044;-68
2024/01/20 01:10:33;;;;;;;28.90;19.50;;;;;;;;;;5023249;28;20049;-68
2024/01/20 01:12:58;;;;;;;31.08;20.27;;;;;;;;;;5020098;28;20041;-68
2024/01/20 01:15:25;;;;;;;32.85;21.30;;;;;;;;;;5019750;28;20108;-68
2024/01/20 01:17:50;;;;;;;33.58;20.60;;;;;;;;;;5001929;28;20045;-68
2024/01/20 01:20:16;;;;;;;24.92;17.75;;;;;;;;;;5031043;28;20033;-68
2024/01/20 01:22:42;;;;;;;32.33;19.90;;;;;;;;;;5094146;22;20406;-69
2024/01/20 01:25:09;;;;;;;29.20;19.65;;;;;;;;;;5060170;28;20044;-70
2024/01/20 01:27:35;;;;;;;34.33;23.02;;;;;;;;;;5065143;28;20044;-70
2024/01/20 01:30:01;;;;;;;31.77;21.35;;;;;;;;;;5070033;28;20040;-70
2024/01/20 01:32:27;;;;;;;29.48;18.35;;;;;;;;;;5051327;28;20075;-70
2024/01/20 01:34:53;;;;;;;37.67;24.83;;;;;;;;;;5051124;28;20039;-70
2024/01/20 01:37:19;;;;;;;60.05;36.15;;;;;;;;;;5053112;28;20048;-70
2024/01/20 01:39:45;;;;;;;33.40;20.65;;;;;;;;;;5054589;28;20041;-70
2024/01/20 01:42:11;;;;;;;34.60;22.00;;;;;;;;;;5054679;28;20379;-70
2024/01/20 01:44:37;;;;;;;35.45;21.10;;;;;;;;;;5050611;28;20116;-70
2024/01/20 01:47:03;;;;;;;37.47;22.88;;;;;;;;;;5053707;28;20033;-70
2024/01/20 01:49:29;;;;;;;33.28;22.35;;;;;;;;;;5047521;28;20037;-70
2024/01/20 01:51:55;;;;;;;32.70;22.10;;;;;;;;;;5054124;28;20040;-70
2024/01/20 01:54:21;;;;;;;33.88;21.85;;;;;;;;;;5054493;28;20044;-70
2024/01/20 01:56:47;;;;;;;37.83;22.42;;;;;;;;;;5054731;28;20079;-70
2024/01/20 01:59:15;;;;;;;37.38;21.48;;;;;;;;;;5050639;28;20036;-70
2024/01/20 02:01:41;;;;;;;30.02;20.67;;;;;;;;;;5043146;28;20069;-70
2024/01/20 02:04:07;;;;;;;35.35;20.90;;;;;;;;;;5054658;28;20033;-70
2024/01/20 02:06:33;;;;;;;34.70;22.35;;;;;;;;;;5054546;28;20068;-70
2024/01/20 02:08:59;;;;;;;34.88;21.40;;;;;;;;;;5043403;28;20047;-70
2024/01/20 02:11:25;;;;;;;33.28;20.60;;;;;;;;;;5042460;28;20048;-70
2024/01/20 02:13:51;;;;;;;35.05;21.52;;;;;;;;;;5054313;28;20033;-70
2024/01/20 02:16:18;;;;;;;33.20;21.70;;;;;;;;;;5054098;28;20052;-70
2024/01/20 02:18:44;;;;;;;33.38;23.02;;;;;;;;;;5052257;28;20045;-70
2024/01/20 02:21:10;;;;;;;33.38;22.27;;;;;;;;;;5053387;28;20067;-70
2024/01/20 02:23:40;;;;;;;36.85;20.73;;;;;;;;;;5058917;28;20061;-70
2024/01/20 02:26:06;;;;;;;39.10;23.13;;;;;;;;;;5035809;28;20040;-70
2024/01/20 02:28:32;;;;;;;35.00;21.40;;;;;;;;;;5055338;28;20059;-70
2024/01/20 02:30:58;;;;;;;33.67;22.75;;;;;;;;;;5050542;28;20123;-70
2024/01/20 02:33:24;;;;;;;36.58;22.58;;;;;;;;;;5053596;28;20132;-70
2024/01/20 02:35:50;;;;;;;41.85;23.80;;;;;;;;;;5052180;28;20087;-70
2024/01/20 02:38:16;;;;;;;35.65;23.02;;;;;;;;;;5048509;28;20082;-70
2024/01/20 02:40:42;;;;;;;35.40;23.25;;;;;;;;;;5051278;28;20112;-70
2024/01/20 02:43:08;;;;;;;31.73;21.20;;;;;;;;;;5053545;28;20028;-70
2024/01/20 02:45:33;;;;;;;40.00;24.05;;;;;;;;;;5053580;28;20487;-70
2024/01/20 02:47:59;;;;;;;35.50;23.98;;;;;;;;;;5051994;28;20051;-70
2024/01/20 02:50:25;;;;;;;41.92;24.95;;;;;;;;;;5051698;28;20033;-70
2024/01/20 02:52:54;;;;;;;40.20;23.85;;;;;;;;;;5053962;28;20471;-70
2024/01/20 02:55:20;;;;;;;40.53;24.48;;;;;;;;;;5053875;28;20048;-70
2024/01/20 02:57:46;;;;;;;38.25;23.08;;;;;;;;;;5053622;28;20037;-70
2024/01/20 03:00:12;;;;;;;39.75;24.50;;;;;;;;;;5055885;28;20072;-70
2024/01/20 03:02:38;;;;;;;40.53;24.63;;;;;;;;;;5046859;28;20112;-70
2024/01/20 03:05:04;;;;;;;37.40;23.02;;;;;;;;;;5045615;28;20136;-70
2024/01/20 03:07:30;;;;;;;40.50;24.60;;;;;;;;;;5060192;28;20036;-70
2024/01/20 03:09:56;;;;;;;35.13;23.55;;;;;;;;;;5049539;28;20033;-70
2024/01/20 03:12:22;;;;;;;37.03;24.73;;;;;;;;;;5050560;28;20076;-70
2024/01/20 03:14:48;;;;;;;44.20;24.70;;;;;;;;;;5052914;28;20120;-70
2024/01/20 03:17:14;;;;;;;41.28;23.52;;;;;;;;;;5059207;28;20040;-70
2024/01/20 03:19:40;;;;;;;45.45;25.58;;;;;;;;;;5052425;28;20498;-70
2024/01/20 03:22:06;;;;;;;45.80;25.65;;;;;;;;;;5052609;28;20065;-70
2024/01/20 03:24:32;;;;;;;38.33;22.80;;;;;;;;;;5052787;28;20057;-70
2024/01/20 03:26:58;;;;;;;42.67;23.75;;;;;;;;;;5051394;28;20059;-70
2024/01/20 03:29:24;;;;;;;37.97;24.45;;;;;;;;;;5052480;28;20116;-70
2024/01/20 03:31:51;;;;;;;41.90;25.27;;;;;;;;;;5053136;28;20041;-70
2024/01/20 03:34:17;;;;;;;45.60;24.80;;;;;;;;;;5052395;28;20041;-70
2024/01/20 03:36:43;;;;;;;42.67;24.27;;;;;;;;;;5058292;28;20383;-70
2024/01/20 03:39:09;;;;;;;40.83;23.88;;;;;;;;;;5052189;28;20075;-69
2024/01/20 03:41:35;;;;;;;40.90;23.20;;;;;;;;;;5052145;28;20040;-69
2024/01/20 03:44:01;;;;;;;41.65;24.42;;;;;;;;;;5053905;28;20033;-69
2024/01/20 03:46:27;;;;;;;48.42;26.65;;;;;;;;;;5051852;28;20044;-69
2024/01/20 03:48:53;;;;;;;42.17;23.85;;;;;;;;;;5052194;28;20041;-69
2024/01/20 03:51:22;;;;;;;40.42;24.73;;;;;;;;;;5053483;28;20584;-69
2024/01/20 03:53:48;;;;;;;49.42;26.38;;;;;;;;;;5052488;28;20068;-69
2024/01/20 03:56:14;;;;;;;42.40;25.55;;;;;;;;;;5056098;28;20491;-69
2024/01/20 03:58:40;;;;;;;46.65;25.00;;;;;;;;;;5050053;28;20523;-69
2024/01/20 04:01:06;;;;;;;49.42;25.65;;;;;;;;;;5046816;28;20091;-69
2024/01/20 04:03:32;;;;;;;45.45;25.48;;;;;;;;;;5055213;28;20033;-69
2024/01/20 04:05:58;;;;;;;49.10;23.60;;;;;;;;;;5052295;28;20047;-69
2024/01/20 04:08:24;;;;;;;47.53;24.85;;;;;;;;;;5052191;28;20033;-69
2024/01/20 04:10:50;;;;;;;46.47;24.42;;;;;;;;;;5051492;28;20047;-69
2024/01/20 04:13:16;;;;;;;48.53;25.70;;;;;;;;;;5052115;28;20079;-69
2024/01/20 04:15:43;;;;;;;43.83;22.15;;;;;;;;;;5053002;28;20073;-69
2024/01/20 04:18:09;;;;;;;54.13;25.63;;;;;;;;;;5049741;28;20170;-69
2024/01/20 04:20:36;;;;;;;46.60;23.92;;;;;;;;;;5051514;28;20072;-69
2024/01/20 04:23:01;;;;;;;47.00;25.80;;;;;;;;;;5051418;28;20033;-69
2024/01/20 04:25:27;;;;;;;51.92;26.45;;;;;;;;;;5054702;28;20039;-69
2024/01/20 04:27:53;;;;;;;48.58;24.75;;;;;;;;;;5053131;28;20078;-69
2024/01/20 04:30:19;;;;;;;50.35;22.70;;;;;;;;;;5051157;28;20076;-69
2024/01/20 04:32:45;;;;;;;46.47;23.73;;;;;;;;;;5051391;28;20052;-69
2024/01/20 04:35:11;;;;;;;50.55;25.27;;;;;;;;;;5054198;28;20037;-69
2024/01/20 04:37:39;;;;;;;52.63;25.90;;;;;;;;;;5051695;28;20064;-69
2024/01/20 04:40:05;;;;;;;55.67;27.02;;;;;;;;;;5048422;28;20040;-69
2024/01/20 04:42:31;;;;;;;53.80;26.98;;;;;;;;;;5047150;28;20384;-69
2024/01/20 04:44:57;;;;;;;53.25;25.10;;;;;;;;;;5053691;28;20033;-69
2024/01/20 04:47:24;;;;;;;46.50;22.27;;;;;;;;;;5051243;28;20491;-69
2024/01/20 04:49:53;;;;;;;59.42;25.50;;;;;;;;;;5051236;28;20298;-69
2024/01/20 04:52:20;;;;;;;57.85;26.77;;;;;;;;;;5047937;28;20054;-69
2024/01/20 04:54:46;;;;;;;50.53;23.42;;;;;;;;;;5049269;28;20041;-69
2024/01/20 04:57:12;;;;;;;56.50;26.75;;;;;;;;;;5047578;28;20044;-69
2024/01/20 04:59:38;;;;;;;57.47;25.08;;;;;;;;;;5056870;28;20538;-69
2024/01/20 05:02:04;;;;;;;51.92;24.83;;;;;;;;;;5043442;28;20071;-69
2024/01/20 05:04:30;;;;;;;55.20;23.65;;;;;;;;;;5049315;28;20562;-69
2024/01/20 05:06:56;;;;;;;58.30;25.40;;;;;;;;;;5048328;28;20068;-69
2024/01/20 05:09:22;;;;;;;51.42;23.52;;;;;;;;;;5049194;28;20482;-69
2024/01/20 05:11:48;;;;;;;55.53;24.73;;;;;;;;;;5053662;28;20041;-69
2024/01/20 05:14:14;;;;;;;60.50;25.88;;;;;;;;;;5059531;28;20044;-69
2024/01/20 05:16:40;;;;;;;58.75;25.27;;;;;;;;;;5055007;28;20041;-69
2024/01/20 05:19:06;;;;;;;59.53;27.83;;;;;;;;;;5055072;28;20487;-69
2024/01/20 05:21:32;;;;;;;61.45;26.20;;;;;;;;;;5054540;28;20073;-69
2024/01/20 05:23:58;;;;;;;58.88;23.92;;;;;;;;;;5053625;28;20040;-69
2024/01/20 05:26:24;;;;;;;60.05;26.77;;;;;;;;;;5052564;28;20045;-69
2024/01/20 05:28:50;;;;;;;59.50;26.92;;;;;;;;;;5056785;28;20044;-69
2024/01/20 05:31:16;;;;;;;59.03;25.40;;;;;;;;;;5054743;28;20041;-69
2024/01/20 05:33:42;;;;;;;59.63;27.27;;;;;;;;;;5048854;28;20045;-69
2024/01/20 05:36:11;;;;;;;56.35;24.98;;;;;;;;;;5054633;28;20063;-69
2024/01/20 05:38:37;;;;;;;59.63;26.67;;;;;;;;;;5055157;28;20077;-69
2024/01/20 05:41:03;;;;;;;60.25;25.95;;;;;;;;;;5054429;28;20041;-69
2024/01/20 05:43:29;;;;;;;56.67;26.65;;;;;;;;;;5054660;28;20051;-69
2024/01/20 05:45:55;;;;;;;53.80;23.38;;;;;;;;;;5055073;28;20043;-69
2024/01/20 05:48:21;;;;;;;57.08;25.15;;;;;;;;;;5055310;28;20033;-69
2024/01/20 05:50:47;;;;;;;49.30;21.27;;;;;;;;;;5054870;28;20056;-69
2024/01/20 05:53:13;;;;;;;56.08;24.08;;;;;;;;;;5052767;28;20410;-69
2024/01/20 05:55:39;;;;;;;54.58;26.02;;;;;;;;;;5051726;28;20041;-69
2024/01/20 05:58:05;;;;;;;56.90;25.25;;;;;;;;;;5054967;28;20045;-69
2024/01/20 06:00:31;;;;;;;55.47;25.30;;;;;;;;;;5052359;28;20075;-69
2024/01/20 06:02:57;;;;;;;50.30;20.92;;;;;;;;;;5048387;28;20060;-68
2024/01/20 06:05:23;;;;;;;53.58;24.48;;;;;;;;;;5042901;28;20106;-68
2024/01/20 06:07:49;;;;;;;58.25;26.33;;;;;;;;;;5053296;28;20047;-68
2024/01/20 06:10:15;;;;;;;51.33;22.48;;;;;;;;;;5048575;28;20399;-68
2024/01/20 06:12:41;;;;;;;52.78;23.30;;;;;;;;;;5053528;28;20047;-68
2024/01/20 06:15:07;;;;;;;57.53;25.60;;;;;;;;;;5048011;28;20462;-68
2024/01/20 06:17:33;;;;;;;51.33;23.27;;;;;;;;;;5047982;28;20041;-68
2024/01/20 06:19:59;;;;;;;46.88;22.90;;;;;;;;;;5053385;28;20037;-68
2024/01/20 06:22:25;;;;;;;51.33;22.98;;;;;;;;;;5052647;28;20068;-68
2024/01/20 06:24:51;;;;;;;52.13;22.45;;;;;;;;;;5053547;28;20041;-68
2024/01/20 06:27:17;;;;;;;60.75;24.45;;;;;;;;;;5053353;28;20127;-68
2024/01/20 06:29:43;;;;;;;54.58;23.25;;;;;;;;;;5049353;28;20036;-68
2024/01/20 06:32:10;;;;;;;52.10;22.75;;;;;;;;;;5053240;28;20044;-68
2024/01/20 06:34:36;;;;;;;51.28;23.27;;;;;;;;;;5053737;28;20045;-68
2024/01/20 06:37:02;;;;;;;48.47;22.08;;;;;;;;;;5038474;28;20503;-68
2024/01/20 06:39:28;;;;;;;52.75;23.00;;;;;;;;;;5053723;28;20033;-68
2024/01/20 06:41:54;;;;;;;52.83;22.17;;;;;;;;;;5053460;28;20044;-68
2024/01/20 06:44:22;;;;;;;55.50;23.38;;;;;;;;;;5042584;28;20120;-68
2024/01/20 06:46:48;;;;;;;51.90;22.20;;;;;;;;;;5053430;28;20055;-68
2024/01/20 06:49:14;;;;;;;51.63;23.02;;;;;;;;;;5050251;28;20080;-68
2024/01/20 06:51:43;;;;;;;47.58;21.52;;;;;;;;;;5047784;28;20075;-68
2024/01/20 06:54:08;;;;;;;50.72;23.58;;;;;;;;;;5052897;28;20044;-68
2024/01/20 06:56:35;;;;;;;49.42;21.08;;;;;;;;;;5047183;28;20037;-68
2024/01/20 06:59:01;;;;;;;53.75;23.17;;;;;;;;;;5047313;28;20029;-68
2024/01/20 07:01:26;;;;;;;43.45;18.88;;;;;;;;;;5050252;28;20037;-68
2024/01/20 07:03:52;;;;;;;54.55;21.90;;;;;;;;;;5052654;28;20036;-69
2024/01/20 07:06:23;;;;;;;46.85;21.50;;;;;;;;;;5047825;28;20091;-68
2024/01/20 07:08:49;;;;;;;47.53;20.85;;;;;;;;;;5051087;28;20155;-68
2024/01/20 07:11:15;;;;;;;52.83;21.58;;;;;;;;;;5046287;28;20106;-69
2024/01/20 07:13:41;;;;;;;41.70;17.27;;;;;;;;;;5052874;28;20569;-69
2024/01/20 07:16:08;;;;;;;53.72;20.58;;;;;;;;;;5052568;28;20037;-68
2024/01/20 07:18:34;;;;;;;52.47;21.83;;;;;;;;;;5051433;28;20481;-68
2024/01/20 07:21:00;;;;;;;50.83;20.98;;;;;;;;;;5050328;28;20086;-68
2024/01/20 07:23:26;;;;;;;50.90;21.38;;;;;;;;;;5052457;28;20414;-69
2024/01/20 07:25:52;;;;;;;50.72;21.42;;;;;;;;;;5052855;28;20048;-69
2024/01/20 07:28:18;;;;;;;46.95;21.58;;;;;;;;;;5052089;28;20041;-68
2024/01/20 07:30:44;;;;;;;43.15;19.17;;;;;;;;;;5048895;28;20043;-68
2024/01/20 07:33:11;;;;;;;47.60;21.73;;;;;;;;;;5048259;28;20521;-68
2024/01/20 07:35:37;;;;;;;46.50;20.60;;;;;;;;;;5049913;28;20550;-68
2024/01/20 07:38:04;;;;;;;48.72;22.25;;;;;;;;;;5052158;28;20124;-68
2024/01/20 07:40:30;;;;;;;47.03;21.52;;;;;;;;;;5051991;28;20069;-68
2024/01/20 07:42:56;;;;;;;45.30;21.13;;;;;;;;;;5051543;28;20098;-68
2024/01/20 07:45:22;;;;;;;50.15;20.95;;;;;;;;;;5051992;28;20506;-68
2024/01/20 07:47:48;;;;;;;46.97;21.42;;;;;;;;;;5047529;28;20075;-68
2024/01/20 07:50:14;;;;;;;51.80;20.83;;;;;;;;;;5052408;28;20045;-68
2024/01/20 07:52:40;;;;;;;52.30;20.38;;;;;;;;;;5052120;28;20043;-68
2024/01/20 07:55:06;;;;;;;46.35;19.33;;;;;;;;;;5051914;28;20033;-68
2024/01/20 07:57:32;;;;;;;47.60;21.33;;;;;;;;;;5050788;28;20537;-68
2024/01/20 07:59:58;;;;;;;53.10;22.23;;;;;;;;;;5051732;28;20033;-68
2024/01/20 08:02:24;;;;;;;43.03;20.88;;;;;;;;;;5048707;28;20075;-68
2024/01/20 08:04:50;;;;;;;49.58;22.33;;;;;;;;;;5049452;28;20067;-68
2024/01/20 08:07:16;;;;;;;48.42;20.55;;;;;;;;;;5041858;28;20049;-68
2024/01/20 08:09:42;;;;;;;45.10;20.98;;;;;;;;;;5046498;28;20041;-68
2024/01/20 08:12:08;;;;;;;49.05;20.13;;;;;;;;;;5047652;28;20132;-68
2024/01/20 08:14:34;;;;;;;47.90;19.77;;;;;;;;;;5040085;28;20391;-68
2024/01/20 08:17:00;;;;;;;53.10;22.08;;;;;;;;;;5040190;28;20041;-68
2024/01/20 08:19:26;;;;;;;53.00;20.98;;;;;;;;;;5042291;28;20475;-68
2024/01/20 08:21:52;;;;;;;50.33;21.08;;;;;;;;;;5046304;28;20036;-68
2024/01/20 08:24:18;;;;;;;47.58;19.13;;;;;;;;;;5039630;28;20490;-68
2024/01/20 08:26:45;;;;;;;51.33;21.35;;;;;;;;;;5040826;28;20041;-68
2024/01/20 08:29:11;;;;;;;46.97;19.88;;;;;;;;;;5047982;28;20415;-67
2024/01/20 08:31:37;;;;;;;47.60;21.45;;;;;;;;;;5054165;28;20040;-67
2024/01/20 08:34:03;;;;;;;48.35;21.35;;;;;;;;;;5043792;28;20116;-67
2024/01/20 08:36:29;;;;;;;53.70;22.17;;;;;;;;;;5046730;28;20120;-67
2024/01/20 08:38:55;;;;;;;47.97;21.05;;;;;;;;;;5051867;28;20122;-67
2024/01/20 08:41:21;;;;;;;50.38;21.05;;;;;;;;;;5049672;28;20479;-67
2024/01/20 08:43:47;;;;;;;49.75;20.95;;;;;;;;;;5051998;28;20064;-67
2024/01/20 08:46:13;;;;;;;45.53;21.20;;;;;;;;;;5051697;28;20049;-68
2024/01/20 08:48:39;;;;;;;50.42;20.95;;;;;;;;;;5051777;28;20055;-68
2024/01/20 08:51:05;;;;;;;50.42;20.60;;;;;;;;;;5049656;28;20037;-68
2024/01/20 08:53:34;;;;;;;50.95;20.83;;;;;;;;;;5045344;28;20056;-68
2024/01/20 08:56:01;;;;;;;47.65;20.75;;;;;;;;;;5051004;28;20041;-68
2024/01/20 08:58:27;;;;;;;44.60;20.33;;;;;;;;;;5051601;28;20029;-68
2024/01/20 09:00:53;;;;;;;40.47;19.38;;;;;;;;;;5048934;28;20047;-69
2024/01/20 09:03:19;;;;;;;42.88;18.67;;;;;;;;;;5051167;28;20051;-69
2024/01/20 09:05:45;;;;;;;49.88;21.15;;;;;;;;;;5051694;28;20494;-69
2024/01/20 09:08:11;;;;;;;38.13;19.02;;;;;;;;;;5048723;28;20103;-69
2024/01/20 09:10:37;;;;;;;42.45;20.05;;;;;;;;;;5047101;28;20398;-69
2024/01/20 09:13:04;;;;;;;38.50;17.27;;;;;;;;;;5048624;28;20064;-69
2024/01/20 09:15:30;;;;;;;47.25;18.73;;;;;;;;;;5049801;28;20093;-69
2024/01/20 09:17:55;;;;;;;45.20;21.35;;;;;;;;;;5045642;28;20441;-68
2024/01/20 09:20:21;;;;;;;35.70;15.48;;;;;;;;;;5050897;28;20040;-68
2024/01/20 09:22:47;;;;;;;44.92;19.00;;;;;;;;;;5050870;28;20175;-69
2024/01/20 09:25:14;;;;;;;43.17;19.63;;;;;;;;;;5051124;28;20044;-69
2024/01/20 09:27:40;;;;;;;37.67;19.17;;;;;;;;;;5050790;28;20051;-69
2024/01/20 09:30:07;;;;;;;43.65;18.88;;;;;;;;;;5050849;28;20044;-69
2024/01/20 09:32:33;;;;;;;42.28;19.13;;;;;;;;;;5051101;28;20146;-69
2024/01/20 09:35:03;;;;;;;44.75;20.02;;;;;;;;;;5050961;28;20055;-69
2024/01/20 09:37:29;;;;;;;42.25;19.13;;;;;;;;;;5051000;28;20077;-69
2024/01/20 09:39:55;;;;;;;50.15;20.42;;;;;;;;;;5050782;28;20047;-69
2024/01/20 09:42:22;;;;;;;45.95;19.15;;;;;;;;;;5050997;28;20049;-69
2024/01/20 09:44:48;;;;;;;44.78;19.50;;;;;;;;;;5049801;28;20491;-69
2024/01/20 09:47:14;;;;;;;44.15;19.05;;;;;;;;;;5049548;28;20037;-68
2024/01/20 09:49:40;;;;;;;41.35;18.90;;;;;;;;;;5050682;28;20048;-68
2024/01/20 09:52:09;;;;;;;49.55;19.48;;;;;;;;;;5050561;28;20041;-68
2024/01/20 09:54:42;;;;;;;37.58;17.75;;;;;;;;;;5050777;28;20045;-68
2024/01/20 09:57:11;;;;;;;40.58;18.27;;;;;;;;;;5047663;28;20068;-68
2024/01/20 09:59:38;;;;;;;34.78;18.23;;;;;;;;;;5051124;28;20415;-68
2024/01/20 10:02:04;;;;;;;35.85;15.60;;;;;;;;;;5051519;28;20037;-68
2024/01/20 10:04:30;;;;;;;40.80;18.27;;;;;;;;;;5047910;28;20037;-68
2024/01/20 10:06:56;;;;;;;39.58;17.30;;;;;;;;;;5053677;28;20048;-69
2024/01/20 10:09:22;;;;;;;34.58;15.70;;;;;;;;;;5053883;28;20033;-69
2024/01/20 10:11:48;;;;;;;35.42;16.25;;;;;;;;;;5052693;28;20053;-69
2024/01/20 10:14:14;;;;;;;37.33;17.48;;;;;;;;;;5052667;28;20055;-69
2024/01/20 10:16:40;;;;;;;32.95;15.73;;;;;;;;;;5052781;28;20045;-69
2024/01/20 10:19:06;;;;;;;34.78;16.58;;;;;;;;;;5053912;28;20033;-69
2024/01/20 10:21:39;;;;;;;42.05;16.25;;;;;;;;;;5052349;28;20132;-69
2024/01/20 10:24:05;;;;;;;38.13;16.60;;;;;;;;;;5051090;28;20454;-69
2024/01/20 10:26:31;;;;;;;38.35;16.08;;;;;;;;;;5054144;28;20041;-69
2024/01/20 10:28:57;;;;;;;33.97;16.33;;;;;;;;;;5052430;28;20051;-69
2024/01/20 10:31:23;;;;;;;35.67;16.08;;;;;;;;;;5053368;28;20033;-69
2024/01/20 10:33:50;;;;;;;33.88;15.48;;;;;;;;;;5051480;28;20052;-71
2024/01/20 10:36:17;;;;;;;36.17;15.40;;;;;;;;;;5042386;28;20128;-71
2024/01/20 10:38:44;;;;;;;34.22;15.68;;;;;;;;;;5053488;28;20041;-71
2024/01/20 10:41:13;;;;;;;32.30;14.93;;;;;;;;;;5053412;28;20041;-71
2024/01/20 10:43:40;;;;;;;33.90;15.15;;;;;;;;;;5050735;28;20553;-71
2024/01/20 10:46:16;;;;;;;35.40;15.32;;;;;;;;;;5042512;28;20491;-71
2024/01/20 10:48:48;;;;;;;31.48;14.38;;;;;;;;;;5047067;28;20499;-71
2024/01/20 10:51:15;;;;;;;33.80;14.55;;;;;;;;;;5051410;28;20048;-71
2024/01/20 10:53:41;;;;;;;33.80;16.20;;;;;;;;;;5052889;28;20060;-71
2024/01/20 10:56:07;;;;;;;36.55;16.70;;;;;;;;;;5052084;28;20045;-70
2024/01/20 10:58:36;;;;;;;38.38;15.60;;;;;;;;;;5049012;28;20135;-70
2024/01/20 11:01:02;;;;;;;33.80;16.55;;;;;;;;;;5049531;28;20514;-70
2024/01/20 11:03:29;;;;;;;34.28;15.20;;;;;;;;;;5051861;28;20202;-70
2024/01/20 11:05:56;;;;;;;29.85;14.40;;;;;;;;;;5050070;28;20392;-70
2024/01/20 11:08:26;;;;;;;34.97;15.95;;;;;;;;;;5052346;28;20499;-70
2024/01/20 11:10:53;;;;;;;31.02;15.07;;;;;;;;;;5057850;28;20040;-70
2024/01/20 11:13:19;;;;;;;33.83;16.08;;;;;;;;;;5052958;28;20071;-70
2024/01/20 11:15:49;;;;;;;31.02;15.18;;;;;;;;;;5057300;28;20452;-70
2024/01/20 11:18:22;;;;;;;30.65;14.75;;;;;;;;;;5052837;28;20045;-70
2024/01/20 11:20:56;;;;;;;34.05;14.65;;;;;;;;;;5055668;28;20051;-70
2024/01/20 11:23:22;;;;;;;31.45;15.20;;;;;;;;;;5052582;28;20045;-70
2024/01/20 11:25:49;;;;;;;29.42;13.75;;;;;;;;;;5052797;28;20047;-70
2024/01/20 11:28:24;;;;;;;32.47;15.02;;;;;;;;;;5052685;28;20459;-70
2024/01/20 11:30:50;;;;;;;31.80;15.68;;;;;;;;;;5052604;28;20132;-70
2024/01/20 11:33:16;;;;;;;31.63;15.93;;;;;;;;;;5051464;28;20127;-70
2024/01/20 11:35:42;;;;;;;30.35;13.73;;;;;;;;;;5052534;28;20049;-70
2024/01/20 11:38:08;;;;;;;34.58;15.20;;;;;;;;;;5051275;28;20061;-70
2024/01/20 11:40:34;;;;;;;32.85;14.90;;;;;;;;;;5051015;28;20087;-71
2024/01/20 11:43:07;;;;;;;32.38;14.75;;;;;;;;;;5053793;28;20068;-71
2024/01/20 11:45:33;;;;;;;31.30;15.02;;;;;;;;;;5048151;28;20044;-71
2024/01/20 11:47:59;;;;;;;35.42;16.00;;;;;;;;;;5049319;28;20124;-71
2024/01/20 11:50:25;;;;;;;31.73;16.45;;;;;;;;;;5048899;28;20072;-71
2024/01/20 11:52:51;;;;;;;31.10;14.57;;;;;;;;;;5052308;28;20037;-71
2024/01/20 11:55:17;;;;;;;32.30;15.80;;;;;;;;;;5052166;28;20037;-71
2024/01/20 11:57:43;;;;;;;36.63;16.35;;;;;;;;;;5052388;28;20465;-71
2024/01/20 12:00:11;;;;;;;36.40;16.60;;;;;;;;;;5050667;28;20322;-71
2024/01/20 12:02:37;;;;;;;34.22;16.08;;;;;;;;;;5051995;28;20076;-71
2024/01/20 12:05:03;;;;;;;30.55;14.40;;;;;;;;;;5048709;28;20071;-71
2024/01/20 12:07:29;;;;;;;32.88;16.05;;;;;;;;;;5052508;28;20446;-71
2024/01/20 12:09:55;;;;;;;33.22;15.38;;;;;;;;;;5050577;28;20080;-71
2024/01/20 12:12:22;;;;;;;31.63;14.40;;;;;;;;;;5051773;28;20045;-71
2024/01/20 12:14:48;;;;;;;31.10;15.95;;;;;;;;;;5051964;28;20044;-71
2024/01/20 12:17:15;;;;;;;34.90;16.13;;;;;;;;;;5050617;28;20084;-71
2024/01/20 12:19:41;;;;;;;32.83;16.20;;;;;;;;;;5046055;28;20379;-71
2024/01/20 12:22:09;;;;;;;31.35;14.88;;;;;;;;;;5050564;28;20048;-71
2024/01/20 12:24:35;;;;;;;32.53;16.05;;;;;;;;;;5047903;28;20049;-70
2024/01/20 12:27:04;;;;;;;33.35;15.40;;;;;;;;;;5051620;28;20041;-70
2024/01/20 12:29:30;;;;;;;29.55;14.63;;;;;;;;;;5051704;28;20541;-71
2024/01/20 12:31:59;;;;;;;29.13;15.05;;;;;;;;;;5051308;28;20052;-71
2024/01/20 12:34:26;;;;;;;32.97;14.05;;;;;;;;;;5051671;28;20526;-70
2024/01/20 12:36:55;;;;;;;32.53;14.35;;;;;;;;;;5047380;28;20503;-70
2024/01/20 12:39:22;;;;;;;34.28;15.95;;;;;;;;;;5050045;28;20445;-70
2024/01/20 12:41:48;;;;;;;31.60;15.38;;;;;;;;;;5046498;28;20037;-70
2024/01/20 12:44:14;;;;;;;31.88;15.65;;;;;;;;;;5042430;28;20487;-70
2024/01/20 12:46:40;;;;;;;32.13;15.05;;;;;;;;;;5047798;28;20474;-70
2024/01/20 12:49:06;;;;;;;31.95;14.63;;;;;;;;;;5051605;28;20036;-70
2024/01/20 12:51:32;;;;;;;34.63;15.50;;;;;;;;;;5046112;28;20041;-70
2024/01/20 12:53:58;;;;;;;31.98;14.30;;;;;;;;;;5048313;28;20045;-70
2024/01/20 12:56:24;;;;;;;29.70;13.02;;;;;;;;;;5050231;28;20128;-70
2024/01/20 12:58:50;;;;;;;34.08;15.23;;;;;;;;;;5051593;28;20036;-70
2024/01/20 13:01:17;;;;;;;33.97;14.77;;;;;;;;;;5050796;28;20044;-70
2024/01/20 13:03:43;;;;;;;34.15;15.20;;;;;;;;;;5051517;28;20090;-70
2024/01/20 13:06:09;;;;;;;33.10;15.00;;;;;;;;;;5050305;28;20495;-70
2024/01/20 13:08:35;;;;;;;32.90;13.48;;;;;;;;;;5051472;28;20036;-70
2024/01/20 13:11:01;;;;;;;30.52;14.18;;;;;;;;;;5050024;28;20036;-70
2024/01/20 13:13:27;;;;;;;32.03;15.82;;;;;;;;;;5051207;28;20095;-70
2024/01/20 13:15:53;;;;;;;32.83;14.10;;;;;;;;;;5051621;28;20041;-70
2024/01/20 13:18:19;;;;;;;38.25;15.63;;;;;;;;;;5048190;28;20041;-70
2024/01/20 13:20:45;;;;;;;30.38;15.52;;;;;;;;;;5044747;28;20496;-70
2024/01/20 13:23:11;;;;;;;33.05;15.25;;;;;;;;;;5051206;28;20041;-70
2024/01/20 13:25:39;;;;;;;31.98;14.63;;;;;;;;;;5084083;22;20041;-69
2024/01/20 13:28:05;;;;;;;29.77;15.43;;;;;;;;;;5066849;28;20147;-68
2024/01/20 13:30:31;;;;;;;33.45;15.70;;;;;;;;;;5066009;28;20047;-68
2024/01/20 13:32:57;;;;;;;31.25;14.48;;;;;;;;;;5052289;28;20064;-69
2024/01/20 13:35:23;;;;;;;29.83;14.95;;;;;;;;;;5049703;28;20492;-69
2024/01/20 13:37:50;;;;;;;31.30;15.18;;;;;;;;;;5053891;28;20538;-69
2024/01/20 13:40:16;;;;;;;31.60;15.95;;;;;;;;;;5053518;28;20118;-68
2024/01/20 13:42:42;;;;;;;29.77;14.40;;;;;;;;;;5053228;28;20048;-69
2024/01/20 13:45:08;;;;;;;28.48;14.70;;;;;;;;;;5053602;28;20040;-69
2024/01/20 13:47:35;;;;;;;28.17;12.95;;;;;;;;;;5053388;28;20491;-69
2024/01/20 13:50:01;;;;;;;29.48;13.88;;;;;;;;;;5051413;28;20095;-69
2024/01/20 13:52:26;;;;;;;30.40;13.63;;;;;;;;;;5053553;28;20466;-69
2024/01/20 13:54:52;;;;;;;29.45;14.98;;;;;;;;;;5054543;28;20047;-69
2024/01/20 13:57:18;;;;;;;28.45;13.52;;;;;;;;;;5053047;28;20056;-69
2024/01/20 13:59:44;;;;;;;27.77;14.68;;;;;;;;;;5050270;28;20187;-69
2024/01/20 14:02:10;;;;;;;26.90;13.48;;;;;;;;;;5049697;28;20048;-69
2024/01/20 14:04:36;;;;;;;26.85;13.80;;;;;;;;;;5053140;28;20045;-69
2024/01/20 14:07:03;;;;;;;28.33;13.85;;;;;;;;;;5051745;28;20094;-69
2024/01/20 14:09:30;;;;;;;27.98;14.68;;;;;;;;;;5047510;28;20041;-68
2024/01/20 14:11:56;;;;;;;26.45;12.73;;;;;;;;;;5052192;28;20045;-68